Terminal Aerodrome Forecast
Issued by NWS

Home | Current Version | Previous Version | Text Only | Print | Product List | Glossary Off
Versions: 1 2 3 4 5 6 7 8 9 10 11 12 13 14 15 16 17 18 19 20 21 22

000
FTUS43 KGRB 102330
TAFMTW
TAF
KMTW 102330Z 1100/1124 31004KT P6SM OVC040
     FM110400 27002KT P6SM SCT040 OVC090
     FM111100 19005KT 2SM -SHSN OVC024
     FM111500 19007KT 1 1/2SM -SHSN OVC012
     FM112200 32007KT 5SM -SHSN OVC013=

USA.gov is the U.S. government's official web portal to all federal, state and local government web resources and services.